Capitol Logistics 973


HKJK
Jomo Kenyatta International Airport
Nairobi, KE
FAOR
O.R. Tambo International Airport
Johannesburg, ZA

Activity Log

Date Flight Route Aircraft Duration
03/19/2020 CPX973 STON1D LOSIN UM315 USUBI UR409 VMV UA405 GWV UZ11 NESAG UZ7 OKPIT OKPI4B B763 4h 04m

Route Details

Aircraft Information
Primary: Boeing 767-300BDSF
Backup: Not Available
Route Data
Distance: 1566nm
Sched. Duration: 3h 45m
Avg. Duration: 4h 04m (+59m)
Times Flown: 1
Recm'd Route: Not Available
Planned Altitude: 34,000ft
Origin Wx: HKJK 261230Z 06008KT 9999 BKN027 26/16 Q1021 NOSIG
Dest. Wx: FAOR 261300Z 29013KT 240V320 CAVOK 16/M03 Q1016 NOSIG
Notes:

Financial History
Total Freight: 95,963lbs
Average Load: 95,963lbs/flt
Fuel Used: 42,604lbs
Avg. Fuel Used: 42,604lbs/flt
Fuel Expense: $35,787
Avg. Fuel Expense: $35,787
Avg. Fuel Cost: $0.84/lbs
Total Gross Income: $942,357
Pilot Pay: $239
Total Expenses: $101,827
Total Revenue: $803,608
Average Revenue: $942,356.69